Cadley, Georgia
Current Conditions -  °F | °C
As of 1:35 PM on Thursday 30 Oct 2014 (Local Time) from KHQU Reporting Station
Clear Clear  
Wind Chill: 69°   Ceiling: Unl
Heat Index: 69°   Visibility: 10mi
Dew Point: 50°   Wind: 7mph
Humidity: 50%   Direction: 20°NNE
Pressure: 30.05"   Gusts: NA
Location:  33.4918°N, 82.7343°W
Report Text: KHQU 301735Z AUTO 02006KT 10SM CLR 21/10 A3005 RMK AO1 T02070100
Loading
Personal Weather Stations






























Interactive Weather Map
Tropical Storm Tracking
New forecast layout! Learn more

10-Day Weather Forecast

Advertisements
Track Severe Weather on mobile